Latest Weather Observations for Casey*

IDT60801

Issued at 3:31 am EST Saturday 30 July 2016 (issued every 30 minutes, with the page automatically refreshed every 10 minutes)

About weather observations | Map of weather stations | Latest weather observations for ANT | Other Formats
Station Details ID: 300017 Name: CASEY Lat: -66.28 Lon: 110.52 Height: 40.0 m
Data from the previous 72 hours. | See also: Recent months at Casey*
Date/Time
EST
Temp
°C
App
Temp
°C
Dew
Point
°C
Rel
Hum
%
Delta-T
°C
Wind Press
QNH
hPa
Press
MSL
hPa
Rain since
9am
mm
Dir  Spd
km/h
Gust
km/h
Spd
kts
Gust
kts
30/03:30am -21.8 -26.7 -27.1 62 - SE 6 15 3 8 981.2 - -
30/03:00am -21.8 -27.3 -26.1 68 - NE 9 13 5 7 982.0 - -
30/02:30am -21.3 -26.8 -27.3 58 - S 9 15 5 8 982.1 - -
30/02:00am -22.9 -28.8 -27.3 67 - E 11 22 6 12 982.5 - -
30/01:30am -22.4 -28.6 -26.0 72 - SSW 13 17 7 9 982.9 - -
30/01:00am -21.4 -28.4 -25.9 67 - S 17 19 9 10 982.9 983.5 -
30/12:30am -20.2 -27.1 -23.3 76 - SSE 17 19 9 10 983.6 - -
30/12:00am -21.2 -27.4 -24.1 77 - SE 13 19 7 10 984.5 - -
 
Date/Time
EST
Temp
°C
App
Temp
°C
Dew
Point
°C
Rel
Hum
%
Delta-T
°C
Wind Press
QNH
hPa
Press
MSL
hPa
Rain since
9am
mm
Dir  Spd
km/h
Gust
km/h
Spd
kts
Gust
kts
29/11:30pm -24.0 -32.4 -28.2 68 - SSE 24 28 13 15 984.8 - -
29/11:00pm -20.7 -26.1 -24.6 71 - NNE 9 13 5 7 984.9 - -
29/10:30pm -22.3 -30.2 -26.6 68 - NNE 22 30 12 16 984.7 - -
29/10:00pm -19.5 -26.5 -26.2 55 - N 17 26 9 14 984.9 985.4 -
29/09:30pm -19.4 -26.8 -26.9 51 - NNE 19 22 10 12 984.5 - -
29/09:00pm -19.4 -24.3 -26.1 55 - NE 6 13 3 7 984.2 - -
29/08:30pm -20.4 -26.7 -27.5 53 - E 13 19 7 10 984.6 - -
29/08:00pm -20.9 -27.1 -26.6 60 - SSW 13 20 7 11 985.3 - -
29/07:30pm -19.6 -25.8 -25.5 59 - S 13 17 7 9 986.3 - -
29/07:00pm -20.5 -27.9 -26.4 59 - S 19 20 10 11 987.1 987.6 -
29/06:30pm -20.2 -25.7 -25.7 61 - S 9 11 5 6 987.8 - -
29/06:00pm -19.3 -24.7 -23.5 69 - S 9 11 5 6 988.4 - -
29/05:30pm -21.0 -25.9 -24.8 71 - NNE 6 11 3 6 988.9 - -
29/05:00pm -20.8 -26.2 -25.0 69 - NNE 9 19 5 10 989.2 - -
29/04:30pm -19.8 -25.6 -25.4 61 - S 11 15 6 8 989.5 - -
29/04:00pm -18.8 -26.1 -24.1 63 - S 19 22 10 12 990.1 990.6 -
29/03:30pm -18.7 -25.6 -23.4 66 - SSE 17 22 9 12 990.6 - -
29/03:00pm -19.4 -26.3 -24.1 66 - SE 17 19 9 10 991.2 - -
29/02:30pm -20.0 -27.5 -25.4 62 - SSE 20 26 11 14 991.7 - -
29/02:00pm -19.0 -24.4 -24.4 62 - SSW 9 17 5 9 992.4 - -
29/01:30pm -18.3 -25.6 -24.3 59 - SE 19 24 10 13 992.9 - -
29/01:00pm -18.9 -26.4 -24.7 60 - S 20 26 11 14 993.0 993.5 -
29/12:30pm -18.0 -27.4 -24.0 59 - S 30 33 16 18 993.1 - -
29/12:00pm -21.3 -28.2 -23.8 80 - S 17 20 9 11 993.8 - -
29/11:30am -21.0 -27.9 -23.5 80 - S 17 19 9 10 994.0 - -
29/11:00am -20.7 -26.5 -23.4 79 - ESE 11 15 6 8 994.5 - -
29/10:30am -20.7 -25.7 -23.7 77 - S 7 13 4 7 994.7 - -
29/10:00am -20.4 -25.2 -23.5 76 - E 6 11 3 6 994.8 995.3 -
29/09:30am -21.2 -27.4 -23.6 81 - S 13 15 7 8 994.9 - -
29/09:00am -19.0 -24.0 -21.3 82 - ESE 7 9 4 5 995.2 - -
29/08:30am -18.8 -23.5 -20.7 85 - S 6 9 3 5 995.6 - -
29/08:00am -18.9 -24.2 -21.0 83 - SSE 9 9 5 5 995.8 - -
29/07:30am -18.7 -24.0 -20.7 84 - SSE 9 9 5 5 996.1 - -
29/07:00am -19.2 -24.9 -21.5 82 - S 11 13 6 7 996.3 996.9 -
29/06:30am -18.3 -24.4 -20.2 85 - S 13 15 7 8 996.5 - -
29/06:00am -18.8 -24.9 -21.4 80 - S 13 15 7 8 996.7 - -
29/05:30am -18.1 -23.4 -20.4 82 - SSE 9 11 5 6 996.8 - -
29/05:00am -18.7 -24.4 -21.0 82 - SSE 11 13 6 7 996.9 - -
29/04:30am -17.9 -21.5 -20.1 83 - CALM 0 0 0 0 996.9 - -
29/04:00am -16.7 -22.0 -19.5 79 - NE 9 9 5 5 996.6 997.2 -
29/03:30am -16.7 -22.0 -19.3 80 - NE 9 11 5 6 996.6 - -
29/03:00am -16.5 -22.1 -19.3 79 - NE 11 13 6 7 996.5 - -
29/02:30am -16.9 -22.9 -19.7 79 - NE 13 15 7 8 996.2 - -
29/02:00am -17.9 -24.7 -20.6 79 - NE 17 19 9 10 996.2 - -
29/01:30am -18.4 -25.3 -21.3 78 - NNE 17 20 9 11 996.1 - -
29/01:00am -18.4 -25.3 -21.4 77 - NNE 17 20 9 11 995.8 996.3 -
29/12:30am -18.9 -27.1 -21.6 79 - NE 24 28 13 15 995.9 - -
29/12:00am -18.0 -24.1 -21.2 76 - NNE 13 17 7 9 995.9 - -
 
Date/Time
EST
Temp
°C
App
Temp
°C
Dew
Point
°C
Rel
Hum
%
Delta-T
°C
Wind Press
QNH
hPa
Press
MSL
hPa
Rain since
9am
mm
Dir  Spd
km/h
Gust
km/h
Spd
kts
Gust
kts
28/11:30pm -17.0 -21.9 -20.2 76 - NNE 7 9 4 5 995.6 - -
28/11:00pm -15.5 -20.4 -19.2 73 - SSE 7 11 4 6 995.5 - -
28/10:30pm -14.1 -18.7 -17.7 74 - S 6 9 3 5 995.5 - -
28/10:00pm -16.2 -21.9 -19.6 75 - SE 11 13 6 7 995.7 996.2 -
28/09:30pm -15.9 -21.6 -19.4 74 - SE 11 13 6 7 995.6 - -
28/09:00pm -15.9 -21.2 -19.3 75 - SSE 9 13 5 7 995.6 - -
28/08:30pm -16.8 -22.5 -20.3 74 - SE 11 15 6 8 995.6 - -
28/08:00pm -16.4 -20.4 -20.6 70 - NE 2 7 1 4 995.7 - -
28/07:30pm -15.9 -21.2 -20.1 70 - NW 9 13 5 7 995.4 - -
28/07:00pm -15.4 -20.6 -18.6 76 - NW 9 11 5 6 995.0 995.5 -
28/06:30pm -13.3 -18.5 -18.5 65 - S 9 11 5 6 994.6 - -
28/06:00pm -12.7 -16.6 -18.2 63 - ESE 2 7 1 4 994.4 - -
28/05:30pm -13.1 -17.7 -17.4 70 - ENE 6 9 3 5 994.2 - -
28/05:00pm -13.5 -18.3 -17.6 71 - N 7 11 4 6 994.0 - -
28/04:30pm -13.3 -18.9 -17.8 69 - NNE 11 13 6 7 993.7 - -
28/04:00pm -13.1 -18.3 -17.4 70 - NNE 9 11 5 6 993.5 994.0 -
28/03:30pm -12.9 -18.9 -17.4 69 - N 13 15 7 8 993.4 - -
28/03:00pm -12.3 -19.4 -17.0 68 - NNW 19 24 10 13 993.1 - -
28/02:30pm -11.5 -18.2 -16.7 65 - NNW 17 20 9 11 992.8 - -
28/02:00pm -11.1 -17.0 -16.4 65 - WNW 13 15 7 8 992.4 - -
28/01:30pm -11.4 -16.6 -16.5 66 - S 9 11 5 6 992.0 - -
28/01:00pm -9.7 -14.8 -16.2 59 - SSW 9 11 5 6 991.6 992.1 -
28/12:30pm -8.8 -14.7 -16.2 55 - S 13 17 7 9 991.2 - -
28/12:00pm -8.3 -13.8 -15.7 55 - S 11 15 6 8 990.8 - -
28/11:30am -8.4 -15.0 -15.8 55 - SW 17 20 9 11 990.4 - -
28/11:20am -8.5 -17.2 -15.0 59 - SE 28 48 15 26 990.4 - -
28/11:00am -8.6 -23.9 -14.7 61 - E 63 72 34 39 988.3 - -
28/10:30am -9.4 -26.0 -14.0 69 - E 70 80 38 43 987.3 - -
28/10:00am -10.1 -28.2 -13.8 74 - E 78 91 42 49 986.5 987.0 -
28/09:30am -10.2 -29.6 -13.4 77 - E 85 96 46 52 985.7 - -
28/09:00am -10.0 -29.8 -13.2 77 - E 87 100 47 54 985.1 - -
28/08:30am -10.3 -30.1 -13.4 78 - E 87 102 47 55 984.6 - -
28/08:00am -10.3 -30.5 -13.2 79 - E 89 102 48 55 984.0 - -
28/07:30am -10.1 -30.2 -12.7 81 - E 89 104 48 56 983.6 - -
28/07:00am -9.6 -29.7 -11.9 83 - E 89 106 48 57 983.1 983.7 -
28/06:42am -8.9 -28.6 -11.4 82 - ENE 87 106 47 57 982.7 - -
28/06:30am -8.7 -29.1 -11.4 81 - ENE 91 104 49 56 982.5 - -
28/06:00am -8.8 -30.0 -11.5 81 - ENE 95 107 51 58 981.9 - -
28/05:30am -9.2 -30.6 -11.5 83 - ENE 96 109 52 59 981.5 - -
28/05:02am -9.0 -30.4 -11.2 84 - ENE 96 115 52 62 981.1 - -
28/05:00am -8.9 -30.6 -11.0 85 - ENE 98 115 53 62 981.2 - -
28/04:44am -9.1 -31.6 -11.0 86 - ENE 102 120 55 65 980.6 - -
28/04:30am -9.1 -32.0 -10.9 87 - ENE 104 117 56 63 980.1 - -
28/04:12am -9.3 -29.7 -10.9 88 - E 91 109 49 59 981.0 - -
28/04:10am -9.3 -29.0 -11.1 87 - E 87 98 47 53 981.4 - -
28/04:07am -9.2 -24.7 -11.0 87 - E 65 87 35 47 982.5 - -
28/04:05am -9.5 -23.5 -11.1 88 - E 57 70 31 38 983.1 - -
28/04:03am -9.6 -20.9 -11.2 88 - SE 43 61 23 33 983.8 - -
28/04:00am -9.9 -21.3 -11.8 86 - SE 43 54 23 29 984.2 984.7 -
28/03:47am -10.0 -20.2 -12.2 84 - SE 37 57 20 31 984.4 - -
28/03:30am -10.2 -20.4 -12.4 84 - SSE 37 46 20 25 984.4 - -
28/03:00am -10.0 -21.0 -11.9 86 - SSE 41 54 22 29 984.5 - -
28/02:52am -10.2 -21.8 -12.1 86 - SSE 44 54 24 29 984.4 - -
28/02:42am -9.7 -20.3 -11.4 87 - ESE 39 61 21 33 984.2 - -
28/02:30am -9.8 -24.9 -11.5 87 - E 63 83 34 45 982.9 - -
28/02:03am -9.6 -27.2 -11.1 89 - E 76 95 41 51 981.5 - -
28/02:00am -9.7 -22.7 -11.2 89 - E 52 76 28 41 982.2 - -
28/01:58am -9.6 -20.9 -11.1 89 - E 43 61 23 33 982.7 - -
28/01:47am -9.7 -19.9 -11.0 90 - SE 37 57 20 31 982.9 - -
28/01:44am -10.0 -20.6 -11.5 89 - SE 39 52 21 28 983.0 - -
28/01:36am -9.8 -23.6 -11.4 88 - E 56 74 30 40 982.4 - -
28/01:35am -9.8 -24.2 -11.4 88 - E 59 74 32 40 981.8 - -
28/01:32am -9.7 -28.4 -11.3 88 - E 82 100 44 54 980.5 - -
28/01:30am -9.8 -28.7 -11.4 88 - E 83 100 45 54 980.0 - -
28/01:04am -9.5 -29.9 -11.2 87 - E 91 109 49 59 979.2 - -
28/01:00am -9.6 -30.8 -11.3 87 - E 95 111 51 60 979.2 979.8 -
28/12:33am -10.0 -32.2 -11.9 86 - E 100 119 54 64 978.2 - -
28/12:30am -10.0 -33.3 -11.9 86 - E 106 120 57 65 978.2 - -
28/12:01am -10.4 -34.7 -12.1 87 - E 111 130 60 70 976.7 - -
28/12:00am -10.4 -35.1 -12.1 87 - E 113 130 61 70 976.7 - -
 
Date/Time
EST
Temp
°C
App
Temp
°C
Dew
Point
°C
Rel
Hum
%
Delta-T
°C
Wind Press
QNH
hPa
Press
MSL
hPa
Rain since
9am
mm
Dir  Spd
km/h
Gust
km/h
Spd
kts
Gust
kts
27/11:42pm -10.4 -34.3 -12.1 87 - E 109 128 59 69 976.6 - -
27/11:30pm -10.3 -34.6 -11.9 88 - E 111 126 60 68 976.6 - -
27/11:17pm -10.4 -34.3 -12.0 88 - E 109 128 59 69 976.4 - -
27/11:00pm -10.1 -33.0 -11.8 87 - E 104 117 56 63 977.1 - -
27/10:37pm -10.3 -32.9 -12.2 86 - E 102 120 55 65 977.5 - -
27/10:30pm -10.5 -33.5 -12.4 86 - E 104 120 56 65 977.0 - -
27/10:06pm -10.2 -32.0 -12.1 86 - E 98 117 53 63 977.8 - -
27/10:00pm -10.2 -32.4 -12.2 85 - E 100 117 54 63 977.5 978.0 -
27/09:40pm -10.4 -31.3 -12.4 85 - E 93 113 50 61 977.8 - -
27/09:30pm -10.4 -32.6 -12.3 86 - E 100 113 54 61 977.3 - -
27/09:00pm -10.6 -34.0 -12.5 86 - E 106 124 57 67 976.1 - -
27/08:30pm -10.4 -34.3 -12.1 87 - E 109 128 59 69 974.8 - -
27/08:00pm -10.3 -34.2 -11.9 88 - E 109 132 59 71 975.0 - -
27/07:40pm -10.3 -35.0 -11.9 88 - E 113 132 61 71 974.4 - -
27/07:30pm -10.3 -35.3 -11.9 88 - E 115 130 62 70 974.4 - -
27/07:07pm -10.3 -34.6 -11.9 88 - E 111 132 60 71 973.9 - -
27/07:00pm -10.2 -34.1 -11.8 88 - E 109 126 59 68 973.9 974.4 -
27/06:43pm -10.1 -33.4 -11.8 87 - E 106 124 57 67 974.3 - -
27/06:30pm -10.1 -34.0 -11.8 87 - E 109 124 59 67 973.7 - -
27/06:15pm -10.2 -34.1 -11.8 88 - E 109 132 59 71 973.6 - -
27/06:00pm -10.2 -34.5 -11.9 87 - E 111 124 60 67 973.1 - -
27/05:36pm -10.2 -32.0 -11.8 88 - E 98 119 53 64 974.0 - -
27/05:30pm -10.0 -31.4 -11.6 88 - E 96 113 52 61 974.5 - -
27/05:00pm -9.8 -31.0 -11.5 87 - E 95 113 51 61 974.6 - -
27/04:30pm -9.6 -30.1 -11.5 86 - E 91 113 49 61 973.8 - -
27/04:12pm -9.9 -31.3 -11.6 87 - E 96 120 52 65 973.9 - -
27/04:00pm -10.0 -31.8 -11.7 87 - E 98 115 53 62 973.8 974.3 -
27/03:30pm -9.6 -32.5 -11.2 88 - E 104 120 56 65 973.1 - -
27/03:00pm -9.6 -33.4 -11.1 89 - E 109 130 59 70 971.6 - -
27/02:57pm -9.7 -33.9 -11.3 88 - E 111 130 60 70 972.3 - -
27/02:53pm -9.5 -35.4 -11.0 89 - E 120 130 65 70 970.9 - -
27/02:30pm -9.5 -30.9 -11.1 88 - E 96 115 52 62 972.2 - -
27/02:01pm -8.9 -31.7 -10.2 90 - E 104 122 56 66 971.4 - -
27/02:00pm -9.0 -32.2 -10.5 89 - E 106 122 57 66 971.4 - -
27/01:40pm -9.4 -32.8 -10.9 89 - E 107 128 58 69 970.2 - -
27/01:30pm -9.3 -32.2 -10.8 89 - E 104 117 56 63 970.7 - -
27/01:00pm -9.9 -31.7 -11.4 89 - E 98 119 53 64 971.3 971.8 -
27/12:50pm -10.3 -30.4 -11.9 88 - E 89 109 48 59 971.9 - -
27/12:30pm -10.3 -30.0 -11.9 88 - E 87 98 47 53 972.7 - -
27/12:00pm -10.4 -29.2 -12.1 87 - E 82 96 44 52 973.1 - -
27/11:30am -9.9 -27.1 -11.5 88 - E 74 85 40 46 973.8 - -
27/11:00am -10.2 -28.6 -11.8 88 - E 80 95 43 51 973.6 - -
27/10:53am -10.2 -27.8 -11.8 88 - E 76 95 41 51 973.4 - -
27/10:30am -9.7 -26.9 -11.2 89 - E 74 83 40 45 973.6 - -
27/10:00am -9.9 -26.7 -11.5 88 - E 72 82 39 44 973.4 973.9 -
27/09:30am -10.3 -27.2 -11.9 88 - E 72 83 39 45 973.2 - -
27/09:00am -10.1 -26.0 -11.6 89 - E 67 80 36 43 973.3 - -
27/08:30am -9.7 -25.2 -11.3 88 - E 65 76 35 41 973.5 - -
27/08:05am -10.3 -26.6 -12.5 84 - E 69 87 37 47 973.5 - -
27/08:00am -10.8 -27.7 -12.8 85 - E 72 85 39 46 972.9 - -
27/07:30am -11.4 -27.8 -14.0 81 - E 69 85 37 46 973.0 - -
27/07:28am -11.5 -28.1 -14.4 79 - E 70 82 38 44 973.0 - -
27/07:01am -9.8 -23.0 -13.7 73 - E 52 70 28 38 974.2 - -
27/07:00am -10.1 -23.7 -13.8 74 - E 54 70 29 38 974.1 974.6 -
27/06:30am -12.1 -27.0 -14.5 82 - E 61 78 33 42 973.7 - -
27/06:25am -12.2 -26.2 -14.5 83 - E 56 65 30 35 974.5 - -
27/06:19am -12.0 -21.5 -15.3 76 - ESE 32 50 17 27 975.3 - -
27/06:17am -11.6 -20.7 -15.4 73 - ESE 30 44 16 24 975.4 - -
27/06:00am -12.7 -19.4 -17.2 69 - S 17 26 9 14 975.4 - -

Other Formats:

Comma delimited format used in spreadsheet applications
http://www.bom.gov.au/fwo/IDT60803/IDT60803.89611.axf

JavaScript Object Notation format (JSON) in row-major order
http://www.bom.gov.au/fwo/IDT60803/IDT60803.89611.json